createdAt,value
2022-10-14T00:01:50.585Z,97415.53
2022-10-14T00:03:54.615Z,97414.53
2022-10-14T00:05:57.349Z,97410.13
2022-10-14T00:08:00.023Z,97411.06
2022-10-14T00:10:02.757Z,97418.75
2022-10-14T00:12:06.837Z,97415.25
2022-10-14T00:14:13.228Z,97416.06
2022-10-14T00:16:18.053Z,97414.31
2022-10-14T00:18:20.617Z,97417.91
2022-10-14T00:20:23.168Z,97411.84
2022-10-14T00:22:26.258Z,97409.16
2022-10-14T00:24:28.870Z,97412.75
2022-10-14T00:26:34.441Z,97417.00
2022-10-14T00:28:38.397Z,97415.25
2022-10-14T00:30:41.035Z,97418.91
2022-10-14T00:32:43.673Z,97417.34
2022-10-14T00:34:46.233Z,97415.59
2022-10-14T00:36:49.111Z,97419.91
2022-10-14T00:38:52.696Z,97422.25
2022-10-14T00:40:56.897Z,97422.41
2022-10-14T00:42:59.468Z,97415.38
2022-10-14T00:45:12.849Z,97412.81
2022-10-14T00:47:15.567Z,97414.66
2022-10-14T00:49:21.623Z,97421.63
2022-10-14T00:51:24.397Z,97424.31
2022-10-14T00:53:26.993Z,97420.75
2022-10-14T00:55:30.156Z,97413.91
2022-10-14T00:57:33.072Z,97415.81
2022-10-14T00:59:35.934Z,97419.50
2022-10-14T01:01:40.247Z,97413.31
2022-10-14T01:03:44.582Z,97412.41
2022-10-14T01:06:00.788Z,97406.31
2022-10-14T01:08:10.173Z,97412.41
2022-10-14T01:10:20.777Z,97407.09
2022-10-14T01:12:33.966Z,97407.09
2022-10-14T01:14:45.485Z,97408.00
2022-10-14T01:16:58.551Z,97396.78
2022-10-14T01:19:15.519Z,97402.84
2022-10-14T01:21:23.916Z,97399.31
2022-10-14T01:24:05.074Z,97402.03
2022-10-14T01:26:22.567Z,97402.91
2022-10-14T01:28:30.476Z,97403.00
2022-10-14T01:30:37.398Z,97399.53
2022-10-14T01:32:51.465Z,97401.31
2022-10-14T01:35:01.698Z,97389.81
2022-10-14T01:37:09.975Z,97388.94
2022-10-14T01:39:19.258Z,97390.63
2022-10-14T01:41:27.305Z,97382.75
2022-10-14T01:43:32.978Z,97382.06
2022-10-14T01:45:41.820Z,97376.59
2022-10-14T01:47:45.719Z,97372.34
2022-10-14T01:49:54.164Z,97371.34
2022-10-14T01:52:03.544Z,97371.34
2022-10-14T01:54:12.170Z,97365.13
2022-10-14T01:56:18.113Z,97380.06
2022-10-14T01:58:22.452Z,97379.16
2022-10-14T02:00:25.025Z,97376.59
2022-10-14T02:02:29.024Z,97375.59
2022-10-14T02:04:31.658Z,97377.44
2022-10-14T02:06:38.478Z,97373.06
2022-10-14T02:08:54.737Z,97375.47
2022-10-14T02:11:10.636Z,97374.81
2022-10-14T02:13:38.432Z,97378.38
2022-10-14T02:15:50.550Z,97373.06
2022-10-14T02:17:58.683Z,97372.56
2022-10-14T02:20:05.874Z,97376.94
2022-10-14T02:22:16.599Z,97377.16
2022-10-14T02:24:23.890Z,97375.19
2022-10-14T02:26:28.285Z,97374.94
2022-10-14T02:28:32.734Z,97366.47
2022-10-14T02:30:39.523Z,97363.00
2022-10-14T02:32:43.853Z,97361.31
2022-10-14T02:34:52.032Z,97357.31
2022-10-14T02:36:56.513Z,97354.22
2022-10-14T02:39:02.001Z,97349.91
2022-10-14T02:41:08.772Z,97344.66
2022-10-14T02:43:11.914Z,97340.34
2022-10-14T02:45:16.720Z,97341.22
2022-10-14T02:47:19.321Z,97339.41
2022-10-14T02:49:22.088Z,97339.34
2022-10-14T02:51:26.128Z,97339.34
2022-10-14T02:53:28.749Z,97332.41
2022-10-14T02:55:31.397Z,97341.13
2022-10-14T02:57:34.047Z,97329.88
2022-10-14T02:59:36.705Z,97324.66
2022-10-14T03:01:39.324Z,97328.16
2022-10-14T03:03:41.993Z,97329.97
2022-10-14T03:05:44.634Z,97320.31
2022-10-14T03:07:48.538Z,97316.00
2022-10-14T03:09:51.154Z,97314.31
2022-10-14T03:11:53.839Z,97319.56
2022-10-14T03:13:56.445Z,97323.88
2022-10-14T03:15:59.245Z,97318.63
2022-10-14T03:18:01.814Z,97318.63
2022-10-14T03:20:04.736Z,97317.69
2022-10-14T03:22:07.299Z,97309.84
2022-10-14T03:24:11.677Z,97303.00
2022-10-14T03:26:14.354Z,97308.16
2022-10-14T03:28:16.979Z,97303.84
2022-10-14T03:30:19.596Z,97301.22
2022-10-14T03:32:24.298Z,97301.97
2022-10-14T03:34:26.980Z,97297.69
2022-10-14T03:36:29.591Z,97300.38
2022-10-14T03:38:32.127Z,97303.00
2022-10-14T03:40:36.059Z,97303.84
2022-10-14T03:42:38.697Z,97299.44
2022-10-14T03:44:41.321Z,97300.38
2022-10-14T03:46:43.927Z,97301.31
2022-10-14T03:48:46.529Z,97291.66
2022-10-14T03:50:49.825Z,97290.84
2022-10-14T03:52:55.561Z,97284.75
2022-10-14T03:54:58.514Z,97285.66
2022-10-14T03:57:02.441Z,97284.03
2022-10-14T03:59:05.088Z,97279.59
2022-10-14T04:01:07.686Z,97271.72
2022-10-14T04:03:11.504Z,97279.50
2022-10-14T04:05:14.315Z,97275.13
2022-10-14T04:07:16.928Z,97269.09
2022-10-14T04:09:19.513Z,97271.72
2022-10-14T04:11:22.136Z,97269.19
2022-10-14T04:13:26.394Z,97270.16
2022-10-14T04:15:29.025Z,97266.78
2022-10-14T04:17:31.683Z,97257.16
2022-10-14T04:19:34.349Z,97265.91
2022-10-14T04:21:36.904Z,97257.31
2022-10-14T04:23:39.749Z,97254.78
2022-10-14T04:25:42.285Z,97258.22
2022-10-14T04:27:44.955Z,97247.91
2022-10-14T04:29:48.911Z,97253.06
2022-10-14T04:31:51.547Z,97247.03
2022-10-14T04:33:54.085Z,97245.28
2022-10-14T04:36:00.327Z,97247.91
2022-10-14T04:38:02.960Z,97252.19
2022-10-14T04:40:06.541Z,97248.75
2022-10-14T04:42:09.158Z,97252.38
2022-10-14T04:44:12.012Z,97242.75
2022-10-14T04:46:15.924Z,97251.47
2022-10-14T04:48:21.110Z,97251.47
2022-10-14T04:50:23.736Z,97245.44
2022-10-14T04:52:26.546Z,97246.34
2022-10-14T04:54:29.221Z,97247.19
2022-10-14T04:56:31.883Z,97250.69
2022-10-14T04:58:34.546Z,97248.06
2022-10-14T05:00:37.131Z,97247.13
2022-10-14T05:02:41.057Z,97247.13
2022-10-14T05:04:43.601Z,97244.59
2022-10-14T05:06:46.191Z,97240.34
2022-10-14T05:08:48.988Z,97235.06
2022-10-14T05:10:52.061Z,97230.72
2022-10-14T05:12:56.753Z,97229.03
2022-10-14T05:14:59.485Z,97225.56
2022-10-14T05:17:02.101Z,97218.50
2022-10-14T05:19:06.042Z,97221.09
2022-10-14T05:21:08.716Z,97216.72
2022-10-14T05:23:11.835Z,97215.88
2022-10-14T05:25:14.539Z,97217.72
2022-10-14T05:27:17.119Z,97220.25
2022-10-14T05:29:19.658Z,97215.09
2022-10-14T05:31:22.256Z,97203.75
2022-10-14T05:33:25.212Z,97208.09
2022-10-14T05:35:53.988Z,97209.84
2022-10-14T05:37:57.030Z,97201.94
2022-10-14T05:40:02.085Z,97199.22
2022-10-14T05:42:04.935Z,97199.22
2022-10-14T05:44:07.708Z,97194.84
2022-10-14T05:46:10.298Z,97194.78
2022-10-14T05:48:12.901Z,97200.16
2022-10-14T05:50:16.121Z,97192.31
2022-10-14T05:52:20.605Z,97194.00
2022-10-14T05:54:23.444Z,97193.28
2022-10-14T05:56:26.186Z,97185.38
2022-10-14T05:58:28.770Z,97190.91
2022-10-14T06:00:31.634Z,97189.16
2022-10-14T06:02:36.605Z,97181.38
2022-10-14T06:04:41.029Z,97183.13
2022-10-14T06:06:43.688Z,97188.47
2022-10-14T06:08:47.780Z,97187.53
2022-10-14T06:10:50.436Z,97183.06
2022-10-14T06:12:53.029Z,97189.94
2022-10-14T06:14:57.486Z,97182.75
2022-10-14T06:17:00.060Z,97180.91
2022-10-14T06:19:02.660Z,97182.63
2022-10-14T06:21:06.333Z,97187.69
2022-10-14T06:23:08.937Z,97185.00
2022-10-14T06:25:12.875Z,97188.38
2022-10-14T06:27:15.479Z,97193.53
2022-10-14T06:29:18.314Z,97195.22
2022-10-14T06:31:20.888Z,97196.00
2022-10-14T06:33:23.571Z,97198.53
2022-10-14T06:35:26.200Z,97195.88
2022-10-14T06:37:28.826Z,97200.25
2022-10-14T06:39:31.447Z,97193.31
2022-10-14T06:41:35.347Z,97197.56
2022-10-14T06:43:38.062Z,97194.94
2022-10-14T06:45:40.611Z,97196.63
2022-10-14T06:47:43.285Z,97194.00
2022-10-14T06:49:45.921Z,97193.19
2022-10-14T06:51:48.484Z,97194.78
2022-10-14T06:53:51.020Z,97199.94
2022-10-14T06:55:58.602Z,97195.56
2022-10-14T06:58:02.501Z,97197.09
2022-10-14T07:00:06.655Z,97196.94
2022-10-14T07:02:11.963Z,97196.78
2022-10-14T07:04:14.574Z,97200.16
2022-10-14T07:06:17.197Z,97191.38
2022-10-14T07:08:19.795Z,97193.09
2022-10-14T07:10:22.396Z,97188.63
2022-10-14T07:12:25.252Z,97201.56
2022-10-14T07:14:29.508Z,97199.75
2022-10-14T07:16:33.144Z,97196.19
2022-10-14T07:18:35.764Z,97192.56
2022-10-14T07:20:38.387Z,97191.56
2022-10-14T07:22:41.025Z,97192.25
2022-10-14T07:24:43.670Z,97193.78
2022-10-14T07:26:46.265Z,97193.63
2022-10-14T07:28:48.896Z,97190.84
2022-10-14T07:31:00.037Z,97190.53
2022-10-14T07:33:03.135Z,97188.34
2022-10-14T07:35:06.733Z,97187.34
2022-10-14T07:37:09.345Z,97190.78
2022-10-14T07:39:11.985Z,97185.50
2022-10-14T07:41:18.164Z,97192.16
2022-10-14T07:43:20.745Z,97191.25
2022-10-14T07:45:23.373Z,97189.31
2022-10-14T07:47:27.361Z,97190.91
2022-10-14T07:49:30.208Z,97189.16
2022-10-14T07:51:34.372Z,97187.31
2022-10-14T07:53:38.127Z,97186.06
2022-10-14T07:55:51.914Z,97189.19
2022-10-14T07:57:54.593Z,97188.16
2022-10-14T07:59:57.466Z,97183.09
2022-10-14T08:02:00.113Z,97186.88
2022-10-14T08:04:04.461Z,97183.00
2022-10-14T08:06:07.553Z,97185.63
2022-10-14T08:08:11.016Z,97186.56
2022-10-14T08:10:13.739Z,97180.66
2022-10-14T08:12:16.399Z,97188.53
2022-10-14T08:14:18.996Z,97182.41
2022-10-14T08:16:24.053Z,97181.56
2022-10-14T08:18:27.038Z,97176.25
2022-10-14T08:20:30.981Z,97180.47
2022-10-14T08:22:33.623Z,97185.44
2022-10-14T08:24:36.234Z,97182.69
2022-10-14T08:26:41.274Z,97186.91
2022-10-14T08:28:43.886Z,97176.50
2022-10-14T08:30:48.105Z,97185.22
2022-10-14T08:32:50.722Z,97177.34
2022-10-14T08:34:55.621Z,97174.22
2022-10-14T08:37:01.975Z,97176.41
2022-10-14T08:39:05.748Z,97172.06
2022-10-14T08:41:24.274Z,97171.75
2022-10-14T08:43:32.019Z,97166.41
2022-10-14T08:45:40.099Z,97160.03
2022-10-14T08:47:46.616Z,97169.31
2022-10-14T08:49:58.593Z,97170.53
2022-10-14T08:52:06.771Z,97168.75
2022-10-14T08:54:15.190Z,97164.84
2022-10-14T08:56:19.230Z,97161.06
2022-10-14T08:58:28.442Z,97169.84
2022-10-14T09:00:33.153Z,97172.75
2022-10-14T09:02:40.024Z,97169.56
2022-10-14T09:04:42.721Z,97169.09
2022-10-14T09:06:47.853Z,97169.84
2022-10-14T09:08:55.730Z,97161.78
2022-10-14T09:10:58.933Z,97167.63
2022-10-14T09:13:18.156Z,97167.16
2022-10-14T09:15:27.579Z,97164.53
2022-10-14T09:17:37.843Z,97158.22
2022-10-14T09:19:47.751Z,97161.06
2022-10-14T09:21:53.264Z,97155.34
2022-10-14T09:24:02.637Z,97153.84
2022-10-14T09:26:12.370Z,97146.50
2022-10-14T09:28:15.091Z,97141.06
2022-10-14T09:30:19.598Z,97145.41
2022-10-14T09:32:35.483Z,97147.84
2022-10-14T09:34:42.368Z,97141.47
2022-10-14T09:36:45.747Z,97140.97
2022-10-14T09:38:52.484Z,97137.50
2022-10-14T09:40:59.771Z,97148.41
2022-10-14T09:43:07.803Z,97142.19
2022-10-14T09:45:13.263Z,97141.41
2022-10-14T09:47:19.097Z,97133.75
2022-10-14T09:49:33.780Z,97130.88
2022-10-14T09:51:36.918Z,97130.13
2022-10-14T09:53:45.178Z,97135.44
2022-10-14T09:55:49.666Z,97134.34
2022-10-14T09:58:17.254Z,97128.97
2022-10-14T10:00:28.532Z,97129.06
2022-10-14T10:02:41.804Z,97124.66
2022-10-14T10:04:47.290Z,97124.56
2022-10-14T10:06:53.938Z,97124.28
2022-10-14T10:08:58.481Z,97116.75
2022-10-14T10:11:06.833Z,97118.34
2022-10-14T10:13:23.379Z,97113.63
2022-10-14T10:15:26.456Z,97111.19
2022-10-14T10:17:32.665Z,97114.69
2022-10-14T10:19:37.689Z,97118.06
2022-10-14T10:21:40.250Z,97123.31
2022-10-14T10:23:51.949Z,97112.97
2022-10-14T10:25:54.526Z,97106.69
2022-10-14T10:28:00.414Z,97108.56
2022-10-14T10:30:21.670Z,97115.69
2022-10-14T10:32:33.710Z,97099.09
2022-10-14T10:35:03.010Z,97103.31
2022-10-14T10:37:15.884Z,97097.28
2022-10-14T10:39:27.524Z,97098.16
2022-10-14T10:41:44.510Z,97093.06
2022-10-14T10:44:08.203Z,97088.16
2022-10-14T10:46:29.466Z,97077.53
2022-10-14T10:48:39.945Z,97070.59
2022-10-14T10:50:49.462Z,97077.75
2022-10-14T10:53:07.112Z,97071.63
2022-10-14T10:55:19.089Z,97073.44
2022-10-14T10:57:34.707Z,97080.59
2022-10-14T10:59:50.295Z,97075.13
2022-10-14T11:02:06.195Z,97073.53
2022-10-14T11:04:25.549Z,97078.59
2022-10-14T11:06:52.385Z,97079.50
2022-10-14T11:09:21.616Z,97081.81
2022-10-14T11:11:42.068Z,97082.00
2022-10-14T11:13:52.866Z,97080.38
2022-10-14T11:16:01.455Z,97079.84
2022-10-14T11:18:14.376Z,97069.53
2022-10-14T11:20:27.678Z,97066.97
2022-10-14T11:22:45.358Z,97065.63
2022-10-14T11:24:58.688Z,97059.91
2022-10-14T11:27:09.457Z,97060.66
2022-10-14T11:29:29.561Z,97054.47
2022-10-14T11:31:40.062Z,97036.69
2022-10-14T11:33:58.123Z,97036.69
2022-10-14T11:36:14.398Z,97030.84
2022-10-14T11:38:32.716Z,97034.44
2022-10-14T11:40:40.311Z,97035.19
2022-10-14T11:42:54.454Z,97028.75
2022-10-14T11:45:10.948Z,97035.81
2022-10-14T11:47:19.146Z,97028.75
2022-10-14T11:49:27.718Z,97025.09
2022-10-14T11:51:36.112Z,97025.84
2022-10-14T11:53:53.304Z,97021.28
2022-10-14T11:56:03.860Z,97019.94
2022-10-14T11:58:11.766Z,97015.22
2022-10-14T12:00:51.584Z,97022.22
2022-10-14T12:02:59.567Z,97017.47
2022-10-14T12:05:12.565Z,97018.53
2022-10-14T12:07:19.255Z,97010.53
2022-10-14T12:09:28.975Z,97010.53
2022-10-14T12:11:36.834Z,97006.34
2022-10-14T12:13:44.447Z,97004.84
2022-10-14T12:15:51.505Z,96993.47
2022-10-14T12:17:58.503Z,96996.03
2022-10-14T12:20:09.518Z,96990.34
2022-10-14T12:22:18.862Z,96983.72
2022-10-14T12:24:28.354Z,96979.19
2022-10-14T12:26:46.617Z,96977.28
2022-10-14T12:28:52.842Z,96977.19
2022-10-14T12:31:36.487Z,96976.97
2022-10-14T12:34:17.305Z,96971.56
2022-10-14T12:36:33.350Z,96973.91
2022-10-14T12:38:36.310Z,96971.47
2022-10-14T12:40:40.562Z,96966.00
2022-10-14T12:42:58.229Z,96972.75
2022-10-14T12:45:02.750Z,96972.94
2022-10-14T12:47:06.276Z,96968.59
2022-10-14T12:49:18.568Z,96964.22
2022-10-14T12:51:23.462Z,96956.94
2022-10-14T12:53:29.833Z,96954.19
2022-10-14T12:55:49.940Z,96951.03
2022-10-14T12:57:55.605Z,96954.50
2022-10-14T13:00:01.969Z,96960.50
2022-10-14T13:02:20.356Z,96958.50
2022-10-14T13:04:23.443Z,96954.72
2022-10-14T13:06:36.349Z,96948.81
2022-10-14T13:08:40.339Z,96952.81
2022-10-14T13:10:48.292Z,96950.59
2022-10-14T13:12:50.894Z,96962.94
2022-10-14T13:14:59.250Z,96960.59
2022-10-14T13:17:02.594Z,96956.38
2022-10-14T13:19:06.194Z,96962.69
2022-10-14T13:21:09.572Z,96954.91
2022-10-14T13:23:31.082Z,96954.03
2022-10-14T13:25:35.052Z,96949.63
2022-10-14T13:27:43.634Z,96950.59
2022-10-14T13:30:03.225Z,96947.75
2022-10-14T13:32:17.117Z,96951.22
2022-10-14T13:34:35.493Z,96959.22
2022-10-14T13:36:43.880Z,96956.59
2022-10-14T13:38:54.788Z,96957.63
2022-10-14T13:40:59.602Z,96953.44
2022-10-14T13:43:07.674Z,96954.56
2022-10-14T13:45:14.217Z,96944.59
2022-10-14T13:47:21.649Z,96961.34
2022-10-14T13:49:34.402Z,96956.47
2022-10-14T13:51:45.852Z,96969.94
2022-10-14T13:53:52.912Z,96970.97
2022-10-14T13:55:57.510Z,96964.97
2022-10-14T13:58:13.481Z,96968.13
2022-10-14T14:00:43.901Z,96971.94
2022-10-14T14:02:50.391Z,96970.22
2022-10-14T14:04:59.833Z,96968.22
2022-10-14T14:07:18.686Z,96969.94
2022-10-14T14:09:27.392Z,96961.88
2022-10-14T14:11:34.040Z,96964.78
2022-10-14T14:13:54.537Z,96965.75
2022-10-14T14:16:00.164Z,96961.34
2022-10-14T14:18:02.809Z,96958.13
2022-10-14T14:20:11.171Z,96961.72
2022-10-14T14:22:19.013Z,96956.50
2022-10-14T14:24:25.108Z,96951.13
2022-10-14T14:26:38.236Z,96939.97
2022-10-14T14:28:42.330Z,96941.00
2022-10-14T14:30:54.608Z,96935.56
2022-10-14T14:33:00.556Z,96939.31
2022-10-14T14:35:05.991Z,96938.03
2022-10-14T14:39:31.842Z,96933.63
2022-10-14T14:41:34.520Z,96941.00
2022-10-14T14:43:41.198Z,96942.91
2022-10-14T14:45:51.191Z,96939.53
2022-10-14T14:47:57.279Z,96943.94
2022-10-14T14:50:28.615Z,96951.88
2022-10-14T14:52:24.549Z,96949.63
2022-10-14T14:54:28.716Z,96949.00
2022-10-14T14:56:35.683Z,96949.22
2022-10-14T14:58:44.147Z,96951.94
2022-10-14T15:00:47.215Z,96947.53
2022-10-14T15:02:58.285Z,96941.31
2022-10-14T15:05:02.780Z,96947.44
2022-10-14T15:07:11.273Z,96947.09
2022-10-14T15:09:15.851Z,96943.72
2022-10-14T15:11:19.525Z,96937.00
2022-10-14T15:13:32.100Z,96942.47
2022-10-14T15:15:35.436Z,96943.34
2022-10-14T15:17:39.690Z,96952.63
2022-10-14T15:19:43.713Z,96941.75
2022-10-14T15:21:47.742Z,96949.97
2022-10-14T15:24:03.089Z,96943.31
2022-10-14T15:26:06.809Z,96947.09
2022-10-14T15:28:30.348Z,96949.19
2022-10-14T15:30:55.781Z,96952.97
2022-10-14T15:33:05.108Z,96955.91
2022-10-14T15:35:14.092Z,96960.41
2022-10-14T15:37:16.678Z,96956.41
2022-10-14T15:39:19.535Z,96958.16
2022-10-14T15:41:22.167Z,96959.84
2022-10-14T15:43:26.036Z,96946.59
2022-10-14T15:45:28.842Z,96943.22
2022-10-14T15:47:30.680Z,96944.25
2022-10-14T15:49:37.039Z,96944.06
2022-10-14T15:51:43.519Z,96949.34
2022-10-14T15:53:46.542Z,96935.44
2022-10-14T15:55:53.824Z,96941.63
2022-10-14T15:57:57.252Z,96933.84
2022-10-14T15:59:59.801Z,96937.59
2022-10-14T16:02:04.058Z,96928.09
2022-10-14T16:04:15.454Z,96925.69
2022-10-14T16:06:19.248Z,96923.16
2022-10-14T16:08:23.282Z,96919.03
2022-10-14T16:10:29.312Z,96921.66
2022-10-14T16:12:36.098Z,96917.38
2022-10-14T16:14:38.662Z,96907.03
2022-10-14T16:16:43.595Z,96907.13
2022-10-14T16:18:46.151Z,96902.19
2022-10-14T16:20:49.140Z,96906.78
2022-10-14T16:22:51.864Z,96911.94
2022-10-14T16:24:56.073Z,96905.09
2022-10-14T16:26:58.638Z,96902.66
2022-10-14T16:29:03.284Z,96899.22
2022-10-14T16:31:06.212Z,96910.75
2022-10-14T16:33:08.859Z,96914.34
2022-10-14T16:35:11.614Z,96915.16
2022-10-14T16:37:14.238Z,96904.09
2022-10-14T16:39:17.678Z,96908.59
2022-10-14T16:41:21.620Z,96916.59
2022-10-14T16:43:24.442Z,96919.22
2022-10-14T16:45:27.315Z,96906.19
2022-10-14T16:47:29.889Z,96915.13
2022-10-14T16:49:32.447Z,96910.78
2022-10-14T16:51:35.006Z,96909.13
2022-10-14T16:53:44.980Z,96911.53
2022-10-14T16:55:47.727Z,96901.22
2022-10-14T16:57:51.670Z,96903.84
2022-10-14T16:59:54.281Z,96910.88
2022-10-14T17:01:56.893Z,96908.47
2022-10-14T17:04:00.126Z,96913.81
2022-10-14T17:06:02.652Z,96922.63
2022-10-14T17:08:05.393Z,96917.56
2022-10-14T17:10:08.896Z,96905.28
2022-10-14T17:12:13.812Z,96913.34
2022-10-14T17:14:21.772Z,96915.16
2022-10-14T17:16:24.728Z,96915.34
2022-10-14T17:18:30.993Z,96908.19
2022-10-14T17:20:36.346Z,96909.13
2022-10-14T17:22:39.189Z,96906.63
2022-10-14T17:24:41.756Z,96910.25
2022-10-14T17:26:45.370Z,96903.44
2022-10-14T17:28:49.039Z,96896.47
2022-10-14T17:30:53.408Z,96901.81
2022-10-14T17:32:56.036Z,96897.53
2022-10-14T17:34:58.585Z,96895.00
2022-10-14T17:37:01.302Z,96888.16
2022-10-14T17:39:04.672Z,96896.03
2022-10-14T17:41:09.130Z,96882.03
2022-10-14T17:43:11.672Z,96881.22
2022-10-14T17:45:14.306Z,96884.78
2022-10-14T17:47:19.143Z,96884.88
2022-10-14T17:49:21.912Z,96889.38
2022-10-14T17:51:26.041Z,96882.03
2022-10-14T17:53:28.937Z,96889.19
2022-10-14T17:55:31.498Z,96898.00
2022-10-14T17:57:34.061Z,96899.78
2022-10-14T17:59:36.633Z,96906.22
2022-10-14T18:04:03.910Z,96906.06
2022-10-14T18:06:10.823Z,96908.13
2022-10-14T18:08:14.298Z,96908.22
2022-10-14T18:10:17.005Z,96895.09
2022-10-14T18:12:20.188Z,96896.13
2022-10-14T18:14:22.752Z,96899.69
2022-10-14T18:16:27.021Z,96894.53
2022-10-14T18:18:30.821Z,96893.03
2022-10-14T18:20:37.067Z,96891.44
2022-10-14T18:22:40.596Z,96888.00
2022-10-14T18:24:43.960Z,96889.75
2022-10-14T18:26:46.557Z,96883.84
2022-10-14T18:28:51.081Z,96889.09
2022-10-14T18:30:53.713Z,96876.91
2022-10-14T18:32:57.893Z,96877.19
2022-10-14T18:35:00.463Z,96879.94
2022-10-14T18:37:04.572Z,96868.66
2022-10-14T18:39:09.557Z,96870.53
2022-10-14T18:41:14.618Z,96871.50
2022-10-14T18:43:17.187Z,96877.66
2022-10-14T18:45:19.737Z,96873.25
2022-10-14T18:47:22.499Z,96869.88
2022-10-14T18:49:25.058Z,96869.13
2022-10-14T18:51:29.463Z,96868.00
2022-10-14T18:53:34.686Z,96860.25
2022-10-14T18:55:41.671Z,96862.41
2022-10-14T18:57:44.402Z,96862.56
2022-10-14T18:59:47.245Z,96861.09
2022-10-14T19:01:55.538Z,96847.97
2022-10-14T19:03:58.449Z,96857.72
2022-10-14T19:06:01.832Z,96850.13
2022-10-14T19:08:05.229Z,96846.56
2022-10-14T19:10:10.265Z,96841.38
2022-10-14T19:12:26.761Z,96840.72
2022-10-14T19:14:31.711Z,96836.41
2022-10-14T19:16:38.721Z,96831.16
2022-10-14T19:18:41.781Z,96832.84
2022-10-14T19:20:45.437Z,96823.47
2022-10-14T19:22:48.113Z,96823.22
2022-10-14T19:24:51.919Z,96818.13
2022-10-14T19:26:56.976Z,96819.06
2022-10-14T19:29:00.538Z,96813.72
2022-10-14T19:31:06.248Z,96813.94
2022-10-14T19:33:08.887Z,96810.00
2022-10-14T19:35:11.590Z,96800.28
2022-10-14T19:37:14.224Z,96798.00
2022-10-14T19:39:19.071Z,96795.91
2022-10-14T19:41:22.411Z,96791.88
2022-10-14T19:43:26.419Z,96792.09
2022-10-14T19:45:28.983Z,96782.53
2022-10-14T19:47:31.557Z,96777.19
2022-10-14T19:49:34.578Z,96780.94
2022-10-14T19:51:37.244Z,96775.69
2022-10-14T19:53:40.165Z,96775.31
2022-10-14T19:55:43.197Z,96766.59
2022-10-14T19:57:46.485Z,96775.22
2022-10-14T19:59:50.950Z,96764.28
2022-10-14T20:01:53.851Z,96762.09
2022-10-14T20:03:57.974Z,96762.25
2022-10-14T20:06:01.209Z,96763.41
2022-10-14T20:08:04.111Z,96760.91
2022-10-14T20:10:07.824Z,96754.16
2022-10-14T20:12:10.836Z,96755.25
2022-10-14T20:14:14.514Z,96750.53
2022-10-14T20:16:21.172Z,96747.81
2022-10-14T20:18:26.101Z,96753.38
2022-10-14T20:20:29.580Z,96748.22
2022-10-14T20:22:33.302Z,96750.84
2022-10-14T20:24:39.894Z,96748.22
2022-10-14T20:26:46.858Z,96744.31
2022-10-14T20:28:50.447Z,96742.22
2022-10-14T20:30:54.191Z,96747.78
2022-10-14T20:32:58.104Z,96745.16
2022-10-14T20:35:00.741Z,96744.41
2022-10-14T20:37:03.960Z,96735.69
2022-10-14T20:39:06.580Z,96733.72
2022-10-14T20:41:12.968Z,96731.94
2022-10-14T20:43:15.531Z,96735.03
2022-10-14T20:45:18.188Z,96725.72
2022-10-14T20:47:21.174Z,96738.31
2022-10-14T20:49:25.394Z,96725.94
2022-10-14T20:51:28.139Z,96726.47
2022-10-14T20:53:31.077Z,96721.13
2022-10-14T20:55:33.819Z,96724.16
2022-10-14T20:57:36.674Z,96714.22
2022-10-14T20:59:41.560Z,96718.72
2022-10-14T21:01:44.200Z,96708.31
2022-10-14T21:03:47.728Z,96710.19
2022-10-14T21:05:52.109Z,96708.53
2022-10-14T21:07:54.731Z,96700.72
2022-10-14T21:09:57.353Z,96699.38
2022-10-14T21:11:59.952Z,96695.75
2022-10-14T21:14:02.535Z,96694.91
2022-10-14T21:16:14.573Z,96695.00
2022-10-14T21:18:17.220Z,96694.41
2022-10-14T21:20:19.830Z,96701.09
2022-10-14T21:22:24.088Z,96694.91
2022-10-14T21:24:26.904Z,96686.91
2022-10-14T21:26:30.846Z,96686.09
2022-10-14T21:28:33.482Z,96678.41
2022-10-14T21:30:36.232Z,96676.72
2022-10-14T21:32:38.864Z,96681.03
2022-10-14T21:34:41.452Z,96680.22
2022-10-14T21:36:44.761Z,96677.69
2022-10-14T21:38:48.770Z,96672.88
2022-10-14T21:40:51.386Z,96670.63
2022-10-14T21:42:53.972Z,96674.22
2022-10-14T21:44:56.532Z,96662.75
2022-10-14T21:46:59.100Z,96663.72
2022-10-14T21:49:01.677Z,96663.06
2022-10-14T21:51:05.452Z,96658.75
2022-10-14T21:53:11.325Z,96661.94
2022-10-14T21:55:17.988Z,96656.03
2022-10-14T21:57:20.784Z,96656.97
2022-10-14T21:59:23.555Z,96653.50
2022-10-14T22:01:27.950Z,96649.94
2022-10-14T22:03:30.986Z,96648.19
2022-10-14T22:05:35.383Z,96649.09
2022-10-14T22:07:37.966Z,96648.19
2022-10-14T22:09:40.543Z,96641.53
2022-10-14T22:11:44.695Z,96640.47
2022-10-14T22:13:47.589Z,96639.66
2022-10-14T22:15:50.364Z,96631.69
2022-10-14T22:17:53.543Z,96631.78
2022-10-14T22:19:56.183Z,96639.00
2022-10-14T22:22:01.240Z,96635.44
2022-10-14T22:24:04.538Z,96629.44
2022-10-14T22:26:09.548Z,96630.28
2022-10-14T22:28:13.470Z,96627.78
2022-10-14T22:30:16.395Z,96624.94
2022-10-14T22:32:18.986Z,96628.41
2022-10-14T22:34:21.563Z,96629.16
2022-10-14T22:36:27.888Z,96624.09
2022-10-14T22:38:30.467Z,96628.53
2022-10-14T22:40:34.581Z,96630.28
2022-10-14T22:42:39.188Z,96624.19
2022-10-14T22:44:46.397Z,96618.03
2022-10-14T22:46:49.012Z,96623.06
2022-10-14T22:48:55.980Z,96613.41
2022-10-14T22:51:03.098Z,96613.22
2022-10-14T22:53:05.711Z,96611.50
2022-10-14T22:55:10.000Z,96616.69
2022-10-14T22:57:12.613Z,96607.88
2022-10-14T22:59:15.370Z,96608.81
2022-10-14T23:01:21.219Z,96607.88
2022-10-14T23:03:23.823Z,96603.47
2022-10-14T23:05:26.399Z,96602.72
2022-10-14T23:07:29.718Z,96598.13
2022-10-14T23:09:32.401Z,96602.50
2022-10-14T23:11:35.066Z,96598.22
2022-10-14T23:13:37.646Z,96596.53
2022-10-14T23:15:40.241Z,96598.22
2022-10-14T23:17:44.165Z,96599.25
2022-10-14T23:19:47.839Z,96600.00
2022-10-14T23:21:50.407Z,96589.50
2022-10-14T23:23:54.423Z,96588.66
2022-10-14T23:25:57.038Z,96586.78
2022-10-14T23:27:59.622Z,96584.91
2022-10-14T23:30:02.213Z,96584.91
2022-10-14T23:32:05.062Z,96585.75
2022-10-14T23:34:12.229Z,96577.03
2022-10-14T23:36:15.805Z,96575.16
2022-10-14T23:38:18.470Z,96576.81
2022-10-14T23:40:21.077Z,96570.63
2022-10-14T23:42:23.782Z,96565.19
2022-10-14T23:44:26.401Z,96573.78
2022-10-14T23:46:28.968Z,96565.19
2022-10-14T23:48:31.541Z,96567.41
2022-10-14T23:50:35.497Z,96569.38
2022-10-14T23:52:38.077Z,96572.09
2022-10-14T23:54:40.773Z,96572.22
2022-10-14T23:56:43.359Z,96569.59
2022-10-14T23:58:45.941Z,96573.97
